Time;durP1;ratioP1;P1;durP2;ratioP2;P2;SDS_P1;SDS_P2;PMS_P1;PMS_P2;Temp;Humidity;BMP_temperature;BMP_pressure;BME280_temperature;BME280_humidity;BME280_pressure;Samples;Min_cycle;Max_cycle;Signal;HPM_P1;HPM_P2
2022/09/29 00:01:44;;;;;;;6.47;4.20;;;;;;;5.25;100.00;99923.69;5063239;28;20037;-70
2022/09/29 00:04:10;;;;;;;7.00;4.60;;;;;;;5.23;100.00;99917.66;5044119;28;20044;-70
2022/09/29 00:06:36;;;;;;;6.35;5.18;;;;;;;5.36;100.00;99920.44;5061804;28;20756;-70
2022/09/29 00:09:01;;;;;;;7.03;5.50;;;;;;;5.50;100.00;99914.38;5044073;28;20047;-70
2022/09/29 00:11:27;;;;;;;8.48;6.30;;;;;;;5.53;100.00;99912.41;5062499;28;20209;-70
2022/09/29 00:13:53;;;;;;;8.82;6.78;;;;;;;5.57;100.00;99913.94;5061999;28;20037;-70
2022/09/29 00:16:19;;;;;;;11.75;7.85;;;;;;;5.60;100.00;99924.31;5043868;28;20033;-70
2022/09/29 00:18:44;;;;;;;11.27;7.95;;;;;;;5.60;100.00;99919.03;5057714;28;20598;-69
2022/09/29 00:21:18;;;;;;;9.52;6.93;;;;;;;5.54;100.00;99919.41;5055534;28;20032;-69
2022/09/29 00:23:44;;;;;;;11.50;8.00;;;;;;;5.60;100.00;99915.53;5060536;28;20109;-69
2022/09/29 00:26:14;;;;;;;13.07;7.93;;;;;;;5.67;100.00;99917.75;5062075;28;20081;-70
2022/09/29 00:28:45;;;;;;;15.82;9.43;;;;;;;5.72;100.00;99910.41;5061492;28;20041;-71
2022/09/29 00:31:11;;;;;;;11.55;7.40;;;;;;;5.40;100.00;99917.53;5057602;28;20032;-70
2022/09/29 00:33:37;;;;;;;10.52;7.05;;;;;;;5.18;100.00;99925.84;5039211;28;20064;-71
2022/09/29 00:36:09;;;;;;;23.65;7.43;;;;;;;5.20;100.00;99929.22;5058610;28;20105;-69
2022/09/29 00:38:35;;;;;;;9.43;7.35;;;;;;;5.19;100.00;99916.97;5056693;28;20441;-71
2022/09/29 00:41:01;;;;;;;7.07;5.57;;;;;;;5.27;100.00;99918.31;5040610;28;20060;-70
2022/09/29 00:43:52;;;;;;;12.30;6.68;;;;;;;5.13;100.00;99916.47;5057597;28;20032;-68
2022/09/29 00:46:23;;;;;;;8.45;6.57;;;;;;;5.14;100.00;99920.81;5040907;28;20265;-69
2022/09/29 00:48:50;;;;;;;10.15;7.00;;;;;;;5.25;100.00;99923.69;5054007;28;20032;-71
2022/09/29 00:51:17;;;;;;;11.90;7.15;;;;;;;5.35;100.00;99919.59;5056927;28;20132;-70
2022/09/29 00:53:44;;;;;;;9.75;7.03;;;;;;;5.34;100.00;99923.19;5057094;28;20212;-67
2022/09/29 00:56:14;;;;;;;10.80;6.78;;;;;;;5.38;100.00;99919.44;5057264;28;20036;-68
2022/09/29 00:59:01;;;;;;;11.82;6.70;;;;;;;5.24;100.00;99914.06;5048857;28;20412;-71
2022/09/29 01:01:30;;;;;;;11.45;6.28;;;;;;;5.20;100.00;99917.81;5060711;28;20115;-70
2022/09/29 01:04:05;;;;;;;8.65;6.30;;;;;;;5.22;100.00;99921.22;5061436;28;20869;-71
2022/09/29 01:06:43;;;;;;;10.38;6.63;;;;;;;5.26;100.00;99917.47;5052613;28;20036;-70
2022/09/29 01:09:16;;;;;;;10.68;6.75;;;;;;;5.24;100.00;99918.50;5057179;28;20067;-68
2022/09/29 01:11:41;;;;;;;9.30;6.65;;;;;;;5.13;100.00;99911.19;5061393;28;20119;-70
2022/09/29 01:14:10;;;;;;;8.35;6.50;;;;;;;5.02;100.00;99911.78;5057816;28;20110;-70
2022/09/29 01:16:36;;;;;;;9.95;6.85;;;;;;;5.10;100.00;99913.97;5059478;28;20165;-70
2022/09/29 01:19:39;;;;;;;9.05;5.78;;;;;;;5.01;100.00;99910.03;5060853;28;20374;-69
2022/09/29 01:22:29;;;;;;;5.30;4.80;;;;;;;4.98;100.00;99915.53;5057813;28;20540;-70
2022/09/29 01:25:25;;;;;;;5.22;3.97;;;;;;;4.92;100.00;99915.88;5049250;28;20645;-69
2022/09/29 01:28:07;;;;;;;7.22;5.32;;;;;;;5.02;100.00;99916.19;5059970;28;20503;-70
2022/09/29 01:30:48;;;;;;;10.18;6.75;;;;;;;4.90;100.00;99915.06;5055617;28;20044;-69
2022/09/29 01:33:32;;;;;;;8.50;5.53;;;;;;;4.79;100.00;99923.59;5054919;28;20032;-70
2022/09/29 01:36:03;;;;;;;6.18;4.10;;;;;;;4.73;100.00;99923.09;5061545;28;20048;-69
2022/09/29 01:39:00;;;;;;;5.75;4.18;;;;;;;4.60;100.00;99921.09;5055538;28;20388;-69
2022/09/29 01:41:55;;;;;;;7.25;5.25;;;;;;;4.68;100.00;99924.19;5059052;28;20038;-71
2022/09/29 01:44:29;;;;;;;14.68;6.75;;;;;;;4.68;100.00;99924.19;5047871;28;20056;-69
2022/09/29 01:47:06;;;;;;;11.32;6.90;;;;;;;4.75;100.00;99921.19;5053223;28;20048;-70
2022/09/29 01:49:37;;;;;;;10.75;6.82;;;;;;;4.77;100.00;99921.94;5053007;28;20029;-70
2022/09/29 01:52:14;;;;;;;12.27;7.88;;;;;;;4.64;100.00;99920.00;5059132;28;20051;-70
2022/09/29 01:54:47;;;;;;;10.32;6.38;;;;;;;4.63;100.00;99926.22;5058455;28;20040;-70
2022/09/29 01:57:36;;;;;;;11.88;7.80;;;;;;;4.66;100.00;99920.75;5034593;28;20321;-70
2022/09/29 02:00:10;;;;;;;9.93;6.53;;;;;;;4.67;100.00;99925.13;5057776;28;20123;-71
2022/09/29 02:02:45;;;;;;;8.45;5.18;;;;;;;4.55;100.00;99915.19;5039303;28;20032;-69
2022/09/29 02:05:20;;;;;;;;;;;;;;;4.38;100.00;99915.25;5043280;28;20098;-71
2022/09/29 02:07:47;;;;;;;5.63;3.85;;;;;;;4.36;100.00;99915.31;5057042;28;20426;-72
2022/09/29 02:10:23;;;;;;;11.85;5.32;;;;;;;4.31;100.00;99919.97;5055696;28;20094;-70
2022/09/29 02:12:51;;;;;;;12.80;4.55;;;;;;;4.29;100.00;99921.00;5051685;28;20033;-71
2022/09/29 02:15:25;;;;;;;21.15;5.15;;;;;;;4.27;100.00;99912.34;5059689;28;20038;-69
2022/09/29 02:17:53;;;;;;;17.02;5.18;;;;;;;4.25;100.00;99920.31;5057568;28;20036;-71
2022/09/29 02:20:19;;;;;;;8.57;5.80;;;;;;;4.26;100.00;99923.78;5020070;28;20052;-71
2022/09/29 02:22:45;;;;;;;14.90;6.15;;;;;;;4.37;100.00;99917.03;5035770;28;20043;-69
2022/09/29 02:25:14;;;;;;;13.27;5.72;;;;;;;4.37;100.00;99921.47;5037668;28;20480;-71
2022/09/29 02:27:40;;;;;;;8.90;5.55;;;;;;;4.26;100.00;99922.00;5053842;28;20079;-69
2022/09/29 02:30:06;;;;;;;9.73;4.75;;;;;;;4.07;100.00;99926.56;5051614;28;20131;-71
2022/09/29 02:32:34;;;;;;;8.57;4.60;;;;;;;4.09;100.00;99919.41;5060116;28;20032;-71
2022/09/29 02:35:00;;;;;;;7.10;4.63;;;;;;;3.96;100.00;99926.22;5034287;28;20041;-68
2022/09/29 02:37:28;;;;;;;7.15;4.03;;;;;;;3.95;100.00;99932.44;5058318;28;20124;-71
2022/09/29 02:40:06;;;;;;;16.77;5.20;;;;;;;3.85;100.00;99932.91;5056549;28;20036;-70
2022/09/29 02:42:59;;;;;;;16.83;5.47;;;;;;;4.00;100.00;99933.06;5051235;28;20036;-71
2022/09/29 02:45:27;;;;;;;;;;;;;;;4.04;100.00;99927.56;5054957;28;20187;-71
2022/09/29 02:48:30;;;;;;;13.60;5.70;;;;;;;4.04;100.00;99922.28;5053634;28;19916;-70
2022/09/29 02:51:01;;;;;;;7.40;5.22;;;;;;;4.01;100.00;99919.78;5054236;28;20040;-70
2022/09/29 02:53:51;;;;;;;7.90;5.63;;;;;;;4.03;100.00;99917.09;5051955;28;20033;-71
2022/09/29 02:56:37;;;;;;;7.63;5.40;;;;;;;3.87;100.00;99924.94;5057389;28;20587;-71
2022/09/29 02:59:27;;;;;;;7.13;4.55;;;;;;;3.84;100.00;99925.94;5058527;28;20047;-70
2022/09/29 03:01:55;;;;;;;14.50;5.13;;;;;;;3.83;100.00;99928.66;5055527;28;20047;-70
2022/09/29 03:04:24;;;;;;;21.40;4.95;;;;;;;3.85;100.00;99932.91;5059552;28;20055;-70
2022/09/29 03:06:50;;;;;;;14.18;5.47;;;;;;;3.93;100.00;99936.94;5059295;28;20115;-71
2022/09/29 03:09:16;;;;;;;13.50;5.95;;;;;;;3.92;100.00;99930.84;5059164;28;20036;-70
2022/09/29 03:11:41;;;;;;;5.70;4.80;;;;;;;3.97;100.00;99931.44;5037536;28;20580;-71
2022/09/29 03:14:07;;;;;;;6.15;4.63;;;;;;;3.96;100.00;99931.50;5059336;28;20029;-71
2022/09/29 03:16:33;;;;;;;7.50;5.57;;;;;;;4.03;100.00;99935.56;5059038;28;20105;-69
2022/09/29 03:18:59;;;;;;;9.77;5.40;;;;;;;4.00;100.00;99930.41;5055062;28;20024;-70
2022/09/29 03:21:24;;;;;;;9.77;6.05;;;;;;;4.07;100.00;99929.19;5055576;28;20460;-71
2022/09/29 03:23:50;;;;;;;11.23;6.60;;;;;;;4.14;100.00;99930.56;5058012;28;20707;-71
2022/09/29 03:26:15;;;;;;;8.32;6.05;;;;;;;4.18;100.00;99923.38;5058388;28;20048;-70
2022/09/29 03:28:41;;;;;;;10.73;6.78;;;;;;;4.18;100.00;99932.13;5034993;28;20153;-71
2022/09/29 03:31:08;;;;;;;10.55;7.15;;;;;;;4.16;100.00;99931.34;5059855;28;20148;-70
2022/09/29 03:33:38;;;;;;;13.10;6.72;;;;;;;4.14;100.00;99928.78;5058399;28;20040;-70
2022/09/29 03:36:05;;;;;;;10.48;6.70;;;;;;;4.16;100.00;99926.91;5054981;28;20404;-68
2022/09/29 03:38:31;;;;;;;11.68;7.53;;;;;;;4.15;100.00;99927.84;5058202;28;20127;-71
2022/09/29 03:40:57;;;;;;;12.02;7.47;;;;;;;4.14;100.00;99931.41;5041747;28;20036;-69
2022/09/29 03:43:23;;;;;;;17.67;7.72;;;;;;;4.05;100.00;99938.94;5060292;28;20385;-71
2022/09/29 03:45:54;;;;;;;15.10;7.90;;;;;;;4.04;100.00;99935.47;5058644;28;20045;-71
2022/09/29 03:48:20;;;;;;;12.93;8.48;;;;;;;3.95;100.00;99933.28;5052758;28;20051;-71
2022/09/29 03:50:47;;;;;;;14.48;7.75;;;;;;;3.88;100.00;99937.19;5059737;28;20131;-71
2022/09/29 03:53:13;;;;;;;9.15;6.03;;;;;;;3.86;100.00;99933.75;5058324;28;20495;-70
2022/09/29 03:55:39;;;;;;;9.63;6.47;;;;;;;3.68;100.00;99939.97;5053583;28;20091;-71
2022/09/29 03:58:04;;;;;;;10.15;5.85;;;;;;;3.64;100.00;99941.88;5050935;28;20048;-70
2022/09/29 04:00:30;;;;;;;9.52;6.38;;;;;;;3.56;100.00;99947.53;5055051;28;20098;-69
2022/09/29 04:02:56;;;;;;;12.07;5.18;;;;;;;3.55;100.00;99947.59;5052616;28;20049;-71
2022/09/29 04:05:21;;;;;;;7.15;5.57;;;;;;;3.50;100.00;99952.25;5059851;28;20037;-71
2022/09/29 04:07:47;;;;;;;7.00;5.30;;;;;;;3.29;100.00;99960.25;5057319;28;20028;-70
2022/09/29 04:10:13;;;;;;;7.85;5.00;;;;;;;3.20;100.00;99955.41;5057963;28;20156;-71
2022/09/29 04:12:38;;;;;;;13.65;5.07;;;;;;;3.19;100.00;99959.00;5061682;28;20037;-70
2022/09/29 04:15:04;;;;;;;8.15;4.47;;;;;;;3.27;100.00;99954.22;5043507;28;20051;-71
2022/09/29 04:17:30;;;;;;;8.80;4.97;;;;;;;3.30;100.00;99955.84;5052460;28;20032;-69
2022/09/29 04:19:55;;;;;;;15.88;6.68;;;;;;;3.42;100.00;99960.53;5062005;28;20473;-69
2022/09/29 04:22:21;;;;;;;13.52;7.30;;;;;;;3.34;100.00;99966.16;5062330;28;20039;-71
2022/09/29 04:24:50;;;;;;;8.98;6.85;;;;;;;3.47;100.00;99961.19;5061793;28;20040;-71
2022/09/29 04:27:16;;;;;;;15.38;8.93;;;;;;;3.57;100.00;99965.06;5064153;28;20028;-70
2022/09/29 04:29:42;;;;;;;11.52;8.73;;;;;;;3.60;100.00;99967.53;5059030;28;20449;-71
2022/09/29 04:32:07;;;;;;;9.77;7.20;;;;;;;3.42;100.00;99973.72;5061470;28;20054;-71
2022/09/29 04:34:33;;;;;;;10.32;6.88;;;;;;;3.21;100.00;99979.97;5055907;28;20143;-70
2022/09/29 04:36:58;;;;;;;8.05;6.18;;;;;;;3.30;100.00;99975.13;5035678;28;20039;-69
2022/09/29 04:39:24;;;;;;;8.05;5.93;;;;;;;3.22;100.00;99979.94;5058273;28;20074;-71
2022/09/29 04:41:49;;;;;;;8.75;6.65;;;;;;;3.22;100.00;99979.94;5059595;28;20036;-69
2022/09/29 04:44:19;;;;;;;8.52;7.00;;;;;;;3.32;100.00;99983.00;5061521;28;20044;-70
2022/09/29 04:46:44;;;;;;;11.95;7.60;;;;;;;3.38;100.00;99983.53;5058204;28;20044;-70
2022/09/29 04:49:09;;;;;;;12.48;7.43;;;;;;;3.43;100.00;99977.19;5061528;28;20143;-71
2022/09/29 04:51:35;;;;;;;12.45;7.78;;;;;;;3.53;100.00;99986.38;5044365;28;20040;-71
2022/09/29 04:54:01;;;;;;;12.90;8.45;;;;;;;3.52;100.00;99985.53;5062232;28;20648;-71
2022/09/29 04:56:30;;;;;;;11.35;6.75;;;;;;;3.21;100.00;99988.72;5059459;28;20044;-70
2022/09/29 04:58:57;;;;;;;7.75;6.05;;;;;;;3.22;100.00;99981.72;5061748;28;20074;-69
2022/09/29 05:01:22;;;;;;;13.45;7.07;;;;;;;3.30;100.00;99987.47;5061146;28;20370;-70
2022/09/29 05:03:48;;;;;;;17.95;8.32;;;;;;;3.45;100.00;99986.72;5061516;28;20051;-70
2022/09/29 05:06:14;;;;;;;18.13;7.47;;;;;;;3.55;100.00;99990.63;5060618;28;20055;-70
2022/09/29 05:08:40;;;;;;;43.20;11.48;;;;;;;3.58;100.00;99994.91;5056464;28;20477;-70
2022/09/29 05:11:06;;;;;;;16.77;7.70;;;;;;;3.46;100.00;100003.38;5041007;28;20032;-70
2022/09/29 05:13:32;;;;;;;19.23;7.40;;;;;;;3.55;100.00;100000.31;5060075;28;20032;-70
2022/09/29 05:15:58;;;;;;;24.63;9.88;;;;;;;3.66;100.00;100005.91;5060165;28;20793;-70
2022/09/29 05:18:24;;;;;;;24.55;9.52;;;;;;;3.60;100.00;100003.59;5060457;28;20032;-69
2022/09/29 05:20:50;;;;;;;38.50;10.15;;;;;;;3.57;100.00;100011.66;5060143;28;20048;-69
2022/09/29 05:23:16;;;;;;;33.42;10.85;;;;;;;3.65;100.00;100012.13;5041719;28;20043;-69
2022/09/29 05:25:42;;;;;;;55.13;11.77;;;;;;;3.73;100.00;100007.34;5059178;28;20036;-70
2022/09/29 05:28:09;;;;;;;109.68;17.15;;;;;;;3.72;100.00;100010.91;5041815;28;20735;-71
2022/09/29 05:30:36;;;;;;;57.83;15.27;;;;;;;3.87;100.00;100007.53;5023759;28;20037;-69
2022/09/29 05:33:01;;;;;;;131.55;17.27;;;;;;;3.87;100.00;100014.59;5059933;28;20090;-69
2022/09/29 05:35:27;;;;;;;68.05;17.08;;;;;;;3.93;100.00;100010.81;5061007;28;20072;-69
2022/09/29 05:37:52;;;;;;;84.35;17.27;;;;;;;4.05;100.00;100004.91;5059188;28;20037;-71
2022/09/29 05:40:18;;;;;;;72.93;17.38;;;;;;;4.08;100.00;100015.31;5060697;28;20473;-69
2022/09/29 05:42:44;;;;;;;59.42;17.08;;;;;;;4.03;100.00;100014.69;5042508;28;20043;-68
2022/09/29 05:45:10;;;;;;;42.83;16.95;;;;;;;4.03;100.00;100012.06;5042257;28;20029;-70
2022/09/29 05:47:40;;;;;;;66.10;18.55;;;;;;;4.10;100.00;100016.06;5054628;28;20044;-70
2022/09/29 05:50:06;;;;;;;39.03;15.43;;;;;;;4.06;100.00;100023.28;5060193;28;20048;-72
2022/09/29 05:52:32;;;;;;;66.85;17.50;;;;;;;4.05;100.00;100020.72;5060621;28;20036;-69
2022/09/29 05:54:57;;;;;;;61.17;16.73;;;;;;;4.13;100.00;100027.34;5056378;28;20362;-71
2022/09/29 05:57:22;;;;;;;56.50;17.50;;;;;;;4.05;100.00;100036.56;5051392;28;20040;-69
2022/09/29 05:59:48;;;;;;;52.00;15.85;;;;;;;3.94;100.00;100041.50;5054910;28;20052;-68
2022/09/29 06:02:14;;;;;;;55.97;16.15;;;;;;;4.10;100.00;100045.09;5054558;28;20086;-70
2022/09/29 06:04:40;;;;;;;40.30;15.32;;;;;;;4.07;100.00;100048.75;5055474;28;20048;-71
2022/09/29 06:07:05;;;;;;;62.97;16.55;;;;;;;4.18;100.00;100037.66;5058446;28;20040;-71
2022/09/29 06:09:32;;;;;;;49.25;17.60;;;;;;;4.31;100.00;100045.81;5059791;28;20032;-68
2022/09/29 06:11:57;;;;;;;40.45;15.52;;;;;;;4.39;100.00;100044.50;5059038;28;20048;-70
2022/09/29 06:14:23;;;;;;;27.85;14.70;;;;;;;4.42;100.00;100035.56;5055208;28;20048;-69
2022/09/29 06:16:49;;;;;;;39.00;15.70;;;;;;;4.37;100.00;100035.81;5054353;28;20044;-70
2022/09/29 06:19:14;;;;;;;44.97;16.15;;;;;;;4.45;100.00;100035.41;5053274;28;20040;-71
2022/09/29 06:21:40;;;;;;;34.33;15.15;;;;;;;4.55;100.00;100044.56;5057435;28;20063;-70
2022/09/29 06:24:06;;;;;;;37.88;15.30;;;;;;;4.66;100.00;100049.28;5055511;28;20040;-69
2022/09/29 06:26:32;;;;;;;37.80;13.82;;;;;;;4.66;100.00;100050.13;5059283;28;20042;-69
2022/09/29 06:28:58;;;;;;;38.75;14.38;;;;;;;4.75;100.00;100054.09;5059587;28;20033;-70
2022/09/29 06:31:25;;;;;;;45.17;14.25;;;;;;;4.89;100.00;100045.44;5057689;28;20050;-70
2022/09/29 06:33:51;;;;;;;30.13;13.50;;;;;;;5.03;100.00;100055.28;5053708;28;20752;-70
2022/09/29 06:39:10;;;;;;;40.70;15.75;;;;;;;5.01;100.00;100059.78;5057995;28;20064;-70
2022/09/29 06:41:35;;;;;;;63.53;15.02;;;;;;;5.26;100.00;100059.34;5058641;28;20031;-68
2022/09/29 06:44:01;;;;;;;50.25;16.48;;;;;;;5.43;100.00;100064.56;5059160;28;20416;-69
2022/09/29 06:46:27;;;;;;;66.78;16.85;;;;;;;5.57;100.00;100062.03;5036160;28;20024;-70
2022/09/29 06:48:53;;;;;;;171.88;23.17;;;;;;;5.41;100.00;100069.06;5053638;28;20769;-70
2022/09/29 06:51:21;;;;;;;111.15;20.67;;;;;;;5.51;100.00;100074.72;5057265;28;20120;-71
2022/09/29 06:53:47;;;;;;;101.07;18.08;;;;;;;5.53;100.00;100072.84;5057971;28;20037;-71
2022/09/29 06:56:13;;;;;;;145.98;20.63;;;;;;;5.63;100.00;100074.06;5057852;28;20405;-71
2022/09/29 06:58:39;;;;;;;82.05;19.10;;;;;;;5.79;100.00;100071.41;5059211;28;20052;-70
2022/09/29 07:01:05;;;;;;;102.85;23.20;;;;;;;5.82;100.00;100071.22;5059315;28;20043;-70
2022/09/29 07:03:31;;;;;;;109.80;20.75;;;;;;;5.86;100.00;100073.59;5058120;28;20056;-71
2022/09/29 07:06:00;;;;;;;78.40;20.65;;;;;;;6.27;100.00;100082.81;5040676;28;20039;-71
2022/09/29 07:08:26;;;;;;;82.65;20.45;;;;;;;6.30;100.00;100080.84;5054869;28;20060;-71
2022/09/29 07:10:51;;;;;;;65.85;20.15;;;;;;;6.26;100.00;100078.44;5039920;28;20442;-70
2022/09/29 07:13:17;;;;;;;66.28;20.27;;;;;;;6.52;100.00;100071.63;5058027;28;20919;-70
2022/09/29 07:15:42;;;;;;;58.72;19.48;;;;;;;6.73;100.00;100079.19;5054135;28;20037;-71
2022/09/29 07:18:08;;;;;;;42.08;18.52;;;;;;;7.04;100.00;100079.97;5054558;28;20077;-71
2022/09/29 07:20:34;;;;;;;64.95;20.00;;;;;;;7.09;100.00;100077.03;5058977;28;20036;-69
2022/09/29 07:23:00;;;;;;;57.17;20.35;;;;;;;7.21;100.00;100086.88;5058529;28;20068;-71
2022/09/29 07:25:25;;;;;;;52.10;20.25;;;;;;;7.06;100.00;100087.81;5053846;28;20036;-71
2022/09/29 07:27:51;;;;;;;47.72;19.30;;;;;;;7.14;100.00;100088.22;5039855;28;20047;-70
2022/09/29 07:30:17;;;;;;;42.55;19.52;;;;;;;7.44;100.00;100096.06;5056930;28;20836;-70
2022/09/29 07:32:43;;;;;;;45.67;17.80;;;;;;;7.39;100.00;100100.81;5055102;28;20036;-71
2022/09/29 07:35:08;;;;;;;35.35;18.77;;;;;;;7.38;100.00;100099.97;5040904;28;20090;-70
2022/09/29 07:37:34;;;;;;;33.60;18.38;;;;;;;7.80;100.00;100095.53;5059938;28;20041;-70
2022/09/29 07:39:59;;;;;;;41.40;19.05;;;;;;;7.46;100.00;100088.88;5058999;28;20029;-71
2022/09/29 07:42:28;;;;;;;26.35;17.77;;;;;;;8.16;100.00;100102.94;5034908;28;20841;-71
2022/09/29 07:44:54;;;;;;;32.70;19.27;;;;;;;7.87;100.00;100099.50;5039866;28;20032;-68
2022/09/29 07:47:20;;;;;;;29.73;19.33;;;;;;;7.98;100.00;100107.66;5036730;28;20040;-71
2022/09/29 07:49:45;;;;;;;34.50;19.73;;;;;;;7.96;100.00;100104.22;5043883;28;20040;-68
2022/09/29 07:52:12;;;;;;;31.67;20.23;;;;;;;8.05;100.00;100106.28;5041965;28;20037;-69
2022/09/29 07:54:38;;;;;;;34.88;21.13;;;;;;;8.45;100.00;100109.03;5061876;28;20039;-69
2022/09/29 07:57:03;;;;;;;41.47;22.40;;;;;;;8.78;100.00;100105.88;5062025;28;20040;-70
2022/09/29 07:59:30;;;;;;;41.22;21.13;;;;;;;8.73;100.00;100107.16;5062191;28;20036;-69
2022/09/29 08:01:55;;;;;;;36.97;22.23;;;;;;;8.82;100.00;100112.72;5054718;28;20744;-71
2022/09/29 08:04:21;;;;;;;35.17;21.42;;;;;;;8.95;100.00;100112.75;5034220;28;20045;-71
2022/09/29 08:06:47;;;;;;;33.95;21.45;;;;;;;9.38;100.00;100117.72;5037112;28;20075;-69
2022/09/29 08:09:13;;;;;;;40.47;22.80;;;;;;;9.08;100.00;100124.22;5041055;28;20454;-69
2022/09/29 08:11:41;;;;;;;41.78;22.60;;;;;;;9.21;100.00;100124.25;5035030;28;20037;-71
2022/09/29 08:14:08;;;;;;;40.17;22.95;;;;;;;9.38;100.00;100131.03;5032560;28;20752;-70
2022/09/29 08:16:34;;;;;;;41.55;23.25;;;;;;;9.21;100.00;100124.25;5041096;28;20052;-70
2022/09/29 08:19:00;;;;;;;40.10;24.30;;;;;;;9.53;100.00;100129.97;5041569;28;20041;-69
2022/09/29 08:21:26;;;;;;;38.95;21.95;;;;;;;9.33;100.00;100138.50;5040521;28;20033;-70
2022/09/29 08:23:52;;;;;;;41.42;23.95;;;;;;;9.63;100.00;100126.66;5041032;28;20045;-69
2022/09/29 08:26:19;;;;;;;45.45;25.20;;;;;;;9.97;100.00;100138.41;5037852;28;20056;-69
2022/09/29 08:28:46;;;;;;;36.33;22.90;;;;;;;10.26;100.00;100142.50;5037324;28;20109;-71
2022/09/29 08:31:15;;;;;;;35.85;21.73;;;;;;;10.37;100.00;100141.72;5041271;28;20040;-71
2022/09/29 08:33:41;;;;;;;40.92;21.77;;;;;;;10.42;100.00;100146.72;5032097;28;20654;-70
2022/09/29 08:36:13;;;;;;;40.17;21.83;;;;;;;10.23;100.00;100145.34;5040100;28;20045;-72
2022/09/29 08:38:47;;;;;;;39.63;23.65;;;;;;;10.47;100.00;100145.41;5036651;28;20060;-70
2022/09/29 08:41:40;;;;;;;36.55;20.75;;;;;;;10.61;100.00;100155.03;5035404;28;20037;-70
2022/09/29 08:44:15;;;;;;;36.38;21.92;;;;;;;10.74;100.00;100153.13;5040117;28;20097;-69
2022/09/29 08:46:52;;;;;;;36.58;20.83;;;;;;;10.60;100.00;100158.69;5025279;28;20033;-71
2022/09/29 08:49:22;;;;;;;33.65;20.15;;;;;;;10.99;100.00;100161.97;5039693;28;20049;-71
2022/09/29 08:51:59;;;;;;;39.35;22.58;;;;;;;11.26;100.00;100164.34;5031277;28;20088;-71
2022/09/29 08:54:32;;;;;;;35.35;20.70;;;;;;;10.68;100.00;100172.28;5036667;28;20040;-69
2022/09/29 08:56:59;;;;;;;35.17;20.20;;;;;;;10.75;100.00;100173.53;5033819;28;20045;-70
2022/09/29 08:59:27;;;;;;;36.25;22.45;;;;;;;11.12;100.00;100170.75;5039905;28;20655;-70
2022/09/29 09:02:12;;;;;;;37.40;22.55;;;;;;;10.71;100.00;100174.72;5037965;28;20064;-71
2022/09/29 09:05:29;;;;;;;39.58;23.60;;;;;;;10.95;100.00;100180.03;5056830;28;20101;-70
2022/09/29 09:08:20;;;;;;;35.35;23.08;;;;;;;11.01;100.00;100174.22;4943482;28;20760;-70
2022/09/29 09:10:55;;;;;;;41.35;24.00;;;;;;;11.03;100.00;100171.44;4956019;28;20075;-69
2022/09/29 09:13:51;;;;;;;38.25;23.58;;;;;;;11.44;100.00;100175.41;4958748;28;20088;-70
2022/09/29 09:16:35;;;;;;;40.13;23.05;;;;;;;11.29;100.00;100172.09;4949178;28;20055;-71
2022/09/29 09:19:24;;;;;;;33.05;22.13;;;;;;;11.23;100.00;100173.44;4958969;28;20549;-71
2022/09/29 09:22:35;;;;;;;32.65;21.50;;;;;;;11.43;100.00;100179.91;4953099;28;20253;-71
2022/09/29 09:25:18;;;;;;;40.17;22.10;;;;;;;11.31;100.00;100178.19;4901267;29;20540;-68
2022/09/29 09:27:48;;;;;;;36.22;21.13;;;;;;;11.48;100.00;100183.06;4897397;29;20067;-68
2022/09/29 09:30:16;;;;;;;32.90;19.27;;;;;;;11.73;100.00;100173.13;4901497;29;20056;-68
2022/09/29 09:32:57;;;;;;;29.48;18.00;;;;;;;11.83;100.00;100180.31;4885624;29;20059;-69
2022/09/29 09:35:31;;;;;;;30.85;19.63;;;;;;;11.78;100.00;100176.28;4897758;29;20079;-71
2022/09/29 09:38:02;;;;;;;31.65;18.20;;;;;;;11.84;100.00;100182.03;4900798;29;20052;-70
2022/09/29 09:40:39;;;;;;;24.67;15.50;;;;;;;12.20;100.00;100180.06;4881091;29;20245;-68
2022/09/29 09:43:19;;;;;;;26.20;16.23;;;;;;;11.88;100.00;100190.66;4948872;28;20746;-69
2022/09/29 09:45:51;;;;;;;28.15;15.27;;;;;;;12.18;98.73;100182.84;4951657;28;20059;-71
2022/09/29 09:48:33;;;;;;;26.13;15.48;;;;;;;12.51;98.54;100180.25;4950212;28;20062;-70
2022/09/29 09:51:12;;;;;;;29.75;15.50;;;;;;;12.75;99.62;100183.56;4956640;28;20071;-71
2022/09/29 09:53:41;;;;;;;23.60;13.65;;;;;;;12.59;99.85;100189.31;4956976;28;20218;-71
2022/09/29 09:56:18;;;;;;;25.55;14.88;;;;;;;13.04;99.87;100193.66;4957213;28;20134;-69
2022/09/29 09:59:08;;;;;;;26.92;15.85;;;;;;;12.90;98.34;100178.75;4957495;28;20046;-70
2022/09/29 10:01:34;;;;;;;23.05;14.27;;;;;;;12.92;99.43;100185.69;5054834;28;20134;-71
2022/09/29 10:04:01;;;;;;;23.13;15.25;;;;;;;12.81;97.90;100182.22;5057967;28;20059;-70
2022/09/29 10:06:26;;;;;;;23.67;15.00;;;;;;;13.17;95.73;100186.28;5059292;28;20037;-70
2022/09/29 10:08:52;;;;;;;27.50;15.18;;;;;;;12.90;100.00;100189.44;5057519;28;20047;-71
2022/09/29 10:11:17;;;;;;;25.00;15.65;;;;;;;13.04;97.21;100191.81;5058443;28;20040;-69
2022/09/29 10:13:45;;;;;;;24.52;15.70;;;;;;;12.90;98.67;100195.69;5057695;28;20052;-70
2022/09/29 10:16:23;;;;;;;20.38;13.90;;;;;;;12.96;94.16;100184.44;5058652;28;20044;-71
2022/09/29 10:18:52;;;;;;;23.30;14.35;;;;;;;13.26;100.00;100185.56;5055991;28;20043;-70
2022/09/29 10:21:37;;;;;;;27.73;15.48;;;;;;;13.18;97.97;100186.16;5055255;28;20072;-69
2022/09/29 10:24:06;;;;;;;19.65;14.30;;;;;;;12.78;97.44;100193.16;5054261;28;20040;-69
2022/09/29 10:26:37;;;;;;;25.02;16.15;;;;;;;12.82;98.50;100192.78;5051425;28;20091;-69
2022/09/29 10:29:20;;;;;;;28.02;15.68;;;;;;;12.67;96.73;100194.91;5058459;28;20920;-71
2022/09/29 10:31:59;;;;;;;27.17;16.00;;;;;;;12.90;98.91;100194.81;5038954;28;20120;-69
2022/09/29 10:34:25;;;;;;;24.77;15.90;;;;;;;13.21;96.06;100199.31;5055473;28;20057;-69
2022/09/29 10:36:58;;;;;;;27.40;15.73;;;;;;;13.30;96.42;100197.69;5047672;28;20740;-70
2022/09/29 10:39:42;;;;;;;22.83;14.70;;;;;;;13.21;94.21;100199.31;5057100;28;20082;-67
2022/09/29 10:42:37;;;;;;;22.73;13.88;;;;;;;13.62;93.06;100194.09;5052495;28;20923;-71
2022/09/29 10:45:06;;;;;;;21.35;13.77;;;;;;;13.62;89.30;100194.94;5053851;28;20029;-68
2022/09/29 10:47:32;;;;;;;21.77;13.00;;;;;;;13.68;90.31;100196.22;5053947;28;20032;-69
2022/09/29 10:50:11;;;;;;;22.13;12.73;;;;;;;13.76;87.45;100199.09;5056664;28;20492;-69
2022/09/29 10:52:41;;;;;;;24.85;14.60;;;;;;;13.82;94.05;100197.72;5056771;28;20032;-71
2022/09/29 10:55:15;;;;;;;25.00;13.48;;;;;;;13.54;88.64;100192.06;5052158;28;20484;-70
2022/09/29 10:57:43;;;;;;;21.77;13.18;;;;;;;13.83;90.08;100192.22;5057041;28;20063;-68
2022/09/29 11:00:25;;;;;;;18.63;12.50;;;;;;;13.82;91.82;100192.34;5054843;28;20080;-68
2022/09/29 11:02:52;;;;;;;20.92;14.07;;;;;;;13.92;91.58;100201.28;5056254;28;20044;-71
2022/09/29 11:05:22;;;;;;;18.92;13.27;;;;;;;13.93;88.14;100193.09;5056625;28;20044;-71
2022/09/29 11:07:50;;;;;;;21.58;14.10;;;;;;;13.93;91.40;100201.13;5034386;28;20049;-71
2022/09/29 11:10:45;;;;;;;18.10;11.65;;;;;;;13.91;89.81;100203.13;5055070;28;20354;-71
2022/09/29 11:13:23;;;;;;;24.25;14.32;;;;;;;14.21;87.39;100199.56;5035872;28;20129;-70
2022/09/29 11:15:48;;;;;;;18.67;12.40;;;;;;;13.97;86.89;100201.72;5053647;28;20596;-71
2022/09/29 11:18:35;;;;;;;20.35;11.45;;;;;;;14.17;84.16;100198.13;5058237;28;20040;-71
2022/09/29 11:21:18;;;;;;;18.70;12.00;;;;;;;14.68;82.30;100201.66;5057302;28;20040;-68
2022/09/29 11:24:05;;;;;;;19.02;11.43;;;;;;;15.23;82.69;100197.44;5060264;28;20055;-68
2022/09/29 11:26:37;;;;;;;15.35;10.45;;;;;;;15.53;81.76;100190.19;5062254;28;20102;-71
2022/09/29 11:29:14;;;;;;;13.77;9.70;;;;;;;15.38;81.30;100199.69;5062085;28;20037;-72
2022/09/29 11:32:11;;;;;;;18.15;10.75;;;;;;;15.41;81.56;100204.75;5062159;28;20048;-68
2022/09/29 11:34:55;;;;;;;15.82;10.60;;;;;;;15.46;80.34;100200.66;5061619;28;20076;-71
2022/09/29 11:37:31;;;;;;;14.88;8.75;;;;;;;15.12;78.71;100202.13;5056240;28;20041;-70